createdAt,value
2023-03-08T00:00:38.551Z,19.63
2023-03-08T00:03:42.876Z,20.67
2023-03-08T00:06:48.210Z,18.43
2023-03-08T00:09:52.172Z,18.97
2023-03-08T00:12:55.784Z,17.93
2023-03-08T00:16:01.569Z,18.97
2023-03-08T00:19:05.510Z,18.67
2023-03-08T00:22:11.604Z,19.23
2023-03-08T00:25:16.720Z,19.03
2023-03-08T00:28:20.494Z,19.07
2023-03-08T00:31:24.463Z,19.30
2023-03-08T00:34:30.521Z,18.70
2023-03-08T00:37:35.906Z,19.00
2023-03-08T00:40:39.639Z,18.73
2023-03-08T00:43:43.677Z,18.23
2023-03-08T00:46:47.472Z,19.00
2023-03-08T00:49:51.324Z,19.63
2023-03-08T00:52:56.958Z,18.67
2023-03-08T00:56:01.586Z,19.10
2023-03-08T00:59:07.710Z,18.37
2023-03-08T01:02:12.515Z,19.77
2023-03-08T01:05:17.049Z,19.27
2023-03-08T01:08:24.056Z,19.57
2023-03-08T01:11:29.133Z,20.57
2023-03-08T01:14:32.739Z,20.33
2023-03-08T01:17:36.788Z,19.43
2023-03-08T01:20:41.434Z,20.80
2023-03-08T01:23:46.639Z,22.23
2023-03-08T01:26:50.514Z,21.87
2023-03-08T01:29:54.920Z,20.67
2023-03-08T01:33:00.821Z,19.60
2023-03-08T01:36:06.421Z,20.10
2023-03-08T01:39:11.757Z,20.23
2023-03-08T01:42:15.443Z,19.60
2023-03-08T01:45:56.567Z,20.00
2023-03-08T01:49:07.845Z,18.90
2023-03-08T01:52:15.927Z,19.53
2023-03-08T01:55:21.431Z,18.97
2023-03-08T01:58:27.091Z,19.53
2023-03-08T02:01:31.091Z,18.53
2023-03-08T02:04:36.664Z,18.97
2023-03-08T02:07:42.943Z,18.37
2023-03-08T02:10:48.545Z,20.07
2023-03-08T02:13:54.431Z,15.93
2023-03-08T02:16:59.334Z,17.60
2023-03-08T02:20:12.382Z,18.17
2023-03-08T02:23:19.490Z,15.47
2023-03-08T02:26:23.304Z,15.10
2023-03-08T02:29:26.871Z,14.80
2023-03-08T02:32:31.456Z,13.43
2023-03-08T02:35:38.860Z,13.67
2023-03-08T02:38:43.917Z,14.17
2023-03-08T02:41:47.576Z,14.20
2023-03-08T02:44:51.172Z,13.40
2023-03-08T02:47:54.816Z,12.37
2023-03-08T02:50:59.022Z,13.07
2023-03-08T02:54:04.206Z,11.97
2023-03-08T02:57:08.011Z,11.80
2023-03-08T03:00:15.039Z,11.30
2023-03-08T03:03:19.160Z,11.60
2023-03-08T03:06:24.142Z,11.70
2023-03-08T03:09:32.851Z,11.20
2023-03-08T03:12:36.688Z,10.77
2023-03-08T03:15:43.391Z,11.70
2023-03-08T03:18:47.454Z,10.93
2023-03-08T03:21:51.094Z,10.20
2023-03-08T03:24:56.536Z,10.83
2023-03-08T03:28:00.488Z,12.00
2023-03-08T03:31:09.291Z,12.20
2023-03-08T03:34:13.368Z,11.73
2023-03-08T03:37:18.589Z,12.10
2023-03-08T03:40:23.818Z,11.63
2023-03-08T03:43:33.322Z,12.23
2023-03-08T03:46:37.408Z,12.87
2023-03-08T03:49:43.845Z,11.43
2023-03-08T03:52:48.831Z,10.90
2023-03-08T03:55:54.521Z,11.17
2023-03-08T03:58:59.140Z,11.30
2023-03-08T04:02:04.633Z,11.33
2023-03-08T04:05:18.412Z,12.20
2023-03-08T04:08:26.630Z,12.10
2023-03-08T04:11:36.340Z,12.57
2023-03-08T04:14:40.963Z,12.00
2023-03-08T04:17:46.839Z,11.37
2023-03-08T04:20:51.358Z,12.03
2023-03-08T04:23:56.298Z,11.53
2023-03-08T04:27:02.154Z,11.83
2023-03-08T04:30:08.197Z,13.10
2023-03-08T04:33:12.856Z,12.23
2023-03-08T04:36:24.672Z,12.70
2023-03-08T04:39:31.163Z,12.80
2023-03-08T04:42:36.706Z,14.27
2023-03-08T04:45:40.844Z,13.27
2023-03-08T04:48:48.907Z,12.40
2023-03-08T04:51:53.914Z,12.33
2023-03-08T04:54:59.350Z,12.10
2023-03-08T04:58:06.558Z,12.13
2023-03-08T05:01:11.979Z,11.00
2023-03-08T05:04:18.836Z,10.77
2023-03-08T05:07:23.762Z,10.70
2023-03-08T05:10:30.222Z,10.83
2023-03-08T05:13:36.848Z,10.27
2023-03-08T05:16:41.822Z,10.50
2023-03-08T05:19:46.646Z,10.23
2023-03-08T05:22:58.855Z,11.10
2023-03-08T05:26:10.499Z,10.13
2023-03-08T05:29:16.138Z,10.53
2023-03-08T05:32:20.870Z,10.57
2023-03-08T05:35:26.768Z,12.87
2023-03-08T05:38:31.154Z,12.20
2023-03-08T05:41:36.365Z,11.87
2023-03-08T05:44:42.596Z,12.10
2023-03-08T05:47:48.945Z,11.60
2023-03-08T05:50:53.082Z,12.47
2023-03-08T05:53:57.276Z,11.10
2023-03-08T05:57:01.291Z,11.17
2023-03-08T06:00:09.719Z,11.43
2023-03-08T06:03:29.927Z,11.27
2023-03-08T06:06:34.974Z,11.23
2023-03-08T06:09:41.397Z,10.70
2023-03-08T06:12:50.269Z,11.27
2023-03-08T06:15:59.442Z,12.30
2023-03-08T06:19:05.288Z,10.20
2023-03-08T06:22:10.967Z,9.60
2023-03-08T06:25:14.860Z,10.03
2023-03-08T06:28:19.740Z,8.40
2023-03-08T06:31:25.320Z,9.40
2023-03-08T06:34:29.411Z,8.27
2023-03-08T06:37:35.398Z,9.23
2023-03-08T06:40:40.409Z,9.37
2023-03-08T06:43:44.549Z,9.93
2023-03-08T06:46:50.419Z,10.67
2023-03-08T06:49:54.345Z,9.80
2023-03-08T06:52:58.221Z,8.80
2023-03-08T06:56:18.503Z,9.07
2023-03-08T06:59:22.500Z,9.30
2023-03-08T07:02:28.229Z,8.70
2023-03-08T07:05:32.015Z,9.23
2023-03-08T07:08:37.195Z,8.77
2023-03-08T07:11:41.150Z,8.17
2023-03-08T07:14:44.842Z,8.30
2023-03-08T07:17:51.815Z,8.50
2023-03-08T07:20:57.206Z,9.10
2023-03-08T07:24:00.961Z,8.27
2023-03-08T07:27:04.967Z,10.63
2023-03-08T07:30:11.139Z,8.30
2023-03-08T07:33:16.447Z,8.57
2023-03-08T07:36:20.355Z,8.27
2023-03-08T07:39:24.595Z,7.80
2023-03-08T07:42:28.479Z,8.27
2023-03-08T07:45:39.929Z,8.13
2023-03-08T07:48:45.358Z,7.30
2023-03-08T07:51:51.652Z,8.17
2023-03-08T07:54:55.465Z,7.07
2023-03-08T07:57:59.302Z,6.27
2023-03-08T08:01:03.574Z,7.13
2023-03-08T08:04:09.913Z,7.80
2023-03-08T08:07:15.317Z,8.40
2023-03-08T08:10:19.544Z,7.37
2023-03-08T08:13:23.694Z,7.77
2023-03-08T08:16:27.652Z,7.90
2023-03-08T08:19:33.228Z,8.07
2023-03-08T08:22:37.908Z,8.03
2023-03-08T08:25:41.854Z,7.83
2023-03-08T08:28:49.266Z,8.20
2023-03-08T08:31:53.552Z,8.40
2023-03-08T08:35:00.351Z,8.13
2023-03-08T08:38:04.346Z,7.63
2023-03-08T08:41:09.615Z,7.53
2023-03-08T08:44:13.348Z,7.03
2023-03-08T08:47:17.229Z,6.47
2023-03-08T08:50:22.538Z,6.77
2023-03-08T08:53:26.706Z,7.37
2023-03-08T08:56:31.190Z,7.00
2023-03-08T08:59:37.263Z,6.60
2023-03-08T09:02:41.226Z,6.30
2023-03-08T09:05:47.105Z,6.47
2023-03-08T09:08:52.267Z,5.77
2023-03-08T09:11:56.232Z,4.90
2023-03-08T09:15:00.769Z,5.53
2023-03-08T09:18:04.683Z,5.57
2023-03-08T09:21:10.044Z,4.70
2023-03-08T09:24:14.285Z,5.77
2023-03-08T09:27:18.138Z,5.60
2023-03-08T09:30:22.126Z,5.17
2023-03-08T09:33:26.449Z,5.53
2023-03-08T09:36:31.880Z,5.70
2023-03-08T09:39:36.086Z,4.50
2023-03-08T09:42:40.324Z,4.93
2023-03-08T09:45:44.291Z,4.50
2023-03-08T09:48:51.748Z,4.83
2023-03-08T09:52:03.455Z,4.53
2023-03-08T09:55:15.922Z,5.13
2023-03-08T09:58:32.324Z,4.53
2023-03-08T10:01:40.730Z,4.53
2023-03-08T10:05:11.460Z,4.07
2023-03-08T10:08:19.749Z,3.90
2023-03-08T10:11:32.982Z,3.83
2023-03-08T10:14:38.985Z,4.67
2023-03-08T10:17:50.664Z,4.50
2023-03-08T10:20:55.201Z,4.27
2023-03-08T10:24:07.001Z,4.57
2023-03-08T10:27:18.574Z,4.80
2023-03-08T10:30:25.333Z,4.43
2023-03-08T10:33:35.129Z,2.27
2023-03-08T10:36:49.727Z,2.27
2023-03-08T10:39:59.983Z,2.60
2023-03-08T10:43:08.101Z,2.97
2023-03-08T10:46:15.530Z,3.20
2023-03-08T10:49:20.937Z,2.90
2023-03-08T10:52:28.483Z,3.03
2023-03-08T10:55:43.546Z,2.83
2023-03-08T10:58:49.443Z,2.93
2023-03-08T11:01:55.786Z,2.37
2023-03-08T11:05:02.383Z,2.60
2023-03-08T11:08:16.582Z,2.53
2023-03-08T11:11:21.937Z,2.80
2023-03-08T11:14:26.608Z,2.20
2023-03-08T11:17:38.004Z,2.30
2023-03-08T11:20:46.850Z,2.20
2023-03-08T11:23:59.690Z,2.47
2023-03-08T11:27:20.120Z,2.45
2023-03-08T11:30:37.043Z,2.30
2023-03-08T11:34:04.578Z,2.40
2023-03-08T11:37:15.326Z,2.40
2023-03-08T11:40:26.309Z,2.90
2023-03-08T11:43:49.454Z,2.67
2023-03-08T11:47:03.557Z,2.40
2023-03-08T11:50:14.128Z,2.10
2023-03-08T11:53:24.904Z,2.20
2023-03-08T11:56:41.953Z,1.83
2023-03-08T11:59:56.957Z,1.70
2023-03-08T12:03:07.826Z,1.70
2023-03-08T12:06:27.936Z,1.83
2023-03-08T12:09:37.919Z,1.60
2023-03-08T12:12:46.428Z,1.73
2023-03-08T12:15:56.438Z,1.90
2023-03-08T12:19:07.179Z,1.80
2023-03-08T12:22:23.495Z,1.75
2023-03-08T12:25:31.077Z,1.63
2023-03-08T12:28:38.831Z,1.70
2023-03-08T12:31:47.230Z,1.90
2023-03-08T12:35:04.259Z,1.75
2023-03-08T12:38:23.993Z,1.70
2023-03-08T12:41:30.254Z,1.92
2023-03-08T12:44:34.194Z,1.92
2023-03-08T12:47:40.151Z,1.73
2023-03-08T12:50:47.831Z,1.73
2023-03-08T12:54:01.223Z,1.33
2023-03-08T12:57:18.178Z,1.15
2023-03-08T13:00:31.173Z,1.60
2023-03-08T13:03:41.556Z,1.50
2023-03-08T13:07:18.759Z,1.50
2023-03-08T13:10:27.690Z,1.63
2023-03-08T13:13:40.955Z,1.50
2023-03-08T13:16:44.928Z,1.67
2023-03-08T13:19:52.485Z,1.73
2023-03-08T13:23:04.126Z,1.70
2023-03-08T13:26:47.711Z,1.35
2023-03-08T13:29:55.272Z,1.42
2023-03-08T13:33:00.067Z,1.58
2023-03-08T13:36:07.457Z,1.63
2023-03-08T13:39:20.945Z,1.20
2023-03-08T13:42:26.205Z,1.45
2023-03-08T13:45:30.936Z,1.65
2023-03-08T13:48:37.244Z,1.40
2023-03-08T13:51:45.904Z,1.48
2023-03-08T13:54:53.420Z,1.77
2023-03-08T13:57:57.670Z,8.88
2023-03-08T14:01:03.739Z,2.53
2023-03-08T14:04:13.414Z,2.60
2023-03-08T14:07:24.121Z,2.10
2023-03-08T14:10:33.946Z,1.90
2023-03-08T14:13:40.129Z,2.33
2023-03-08T14:16:44.579Z,2.38
2023-03-08T14:19:55.569Z,2.28
2023-03-08T14:23:01.320Z,2.22
2023-03-08T14:26:05.887Z,2.15
2023-03-08T14:29:20.344Z,1.90
2023-03-08T14:32:32.367Z,2.38
2023-03-08T14:35:38.912Z,2.20
2023-03-08T14:38:44.252Z,1.80
2023-03-08T14:41:48.328Z,1.70
2023-03-08T14:44:54.136Z,1.90
2023-03-08T14:47:59.706Z,2.23
2023-03-08T14:51:05.268Z,2.27
2023-03-08T14:54:23.967Z,2.30
2023-03-08T14:57:30.722Z,1.80
2023-03-08T15:00:34.557Z,2.10
2023-03-08T15:03:38.344Z,2.20
2023-03-08T15:06:42.596Z,2.10
2023-03-08T15:09:48.721Z,2.20
2023-03-08T15:12:52.805Z,2.20
2023-03-08T15:15:56.736Z,2.33
2023-03-08T15:19:00.493Z,2.40
2023-03-08T15:22:07.043Z,2.60
2023-03-08T15:25:18.336Z,2.80
2023-03-08T15:28:23.836Z,3.00
2023-03-08T15:31:27.715Z,4.90
2023-03-08T15:34:31.475Z,3.90
2023-03-08T15:37:35.171Z,4.13
2023-03-08T15:40:40.530Z,3.70
2023-03-08T15:43:44.630Z,3.37
2023-03-08T15:46:49.923Z,3.93
2023-03-08T15:49:55.385Z,3.83
2023-03-08T15:52:59.640Z,4.60
2023-03-08T15:56:05.037Z,4.50
2023-03-08T15:59:09.169Z,3.53
2023-03-08T16:02:16.396Z,2.80
2023-03-08T16:05:23.052Z,3.57
2023-03-08T16:08:29.144Z,3.23
2023-03-08T16:11:34.297Z,3.17
2023-03-08T16:14:38.489Z,3.73
2023-03-08T16:17:42.288Z,4.23
2023-03-08T16:20:46.448Z,5.80
2023-03-08T16:23:50.411Z,5.37
2023-03-08T16:26:56.182Z,4.17
2023-03-08T16:30:00.262Z,4.27
2023-03-08T16:33:05.989Z,3.70
2023-03-08T16:36:10.876Z,4.30
2023-03-08T16:39:14.651Z,3.63
2023-03-08T16:42:20.879Z,3.07
2023-03-08T16:45:24.723Z,3.90
2023-03-08T16:48:29.881Z,6.83
2023-03-08T16:51:33.678Z,8.00
2023-03-08T16:54:38.055Z,5.97
2023-03-08T16:57:43.294Z,4.23
2023-03-08T17:00:47.298Z,6.77
2023-03-08T17:03:52.025Z,5.10
2023-03-08T17:06:55.861Z,7.10
2023-03-08T17:10:02.863Z,71.77
2023-03-08T17:13:08.876Z,33.67
2023-03-08T17:16:13.999Z,20.43
2023-03-08T17:19:17.922Z,20.50
2023-03-08T17:22:21.745Z,11.07
2023-03-08T17:25:25.546Z,8.63
2023-03-08T17:28:30.934Z,7.90
2023-03-08T17:31:34.924Z,17.70
2023-03-08T17:34:38.817Z,11.00
2023-03-08T17:37:42.971Z,13.00
2023-03-08T17:40:47.805Z,14.50
2023-03-08T17:43:53.131Z,14.60
2023-03-08T17:46:57.036Z,13.27
2023-03-08T17:50:01.051Z,16.03
2023-03-08T17:53:05.263Z,30.63
2023-03-08T17:56:10.643Z,15.37
2023-03-08T17:59:17.569Z,15.73
2023-03-08T18:02:22.397Z,54.40
2023-03-08T18:05:26.467Z,11.27
2023-03-08T18:08:30.449Z,48.43
2023-03-08T18:11:38.091Z,11.60
2023-03-08T18:14:43.730Z,23.37
2023-03-08T18:17:48.077Z,8.87
2023-03-08T18:20:53.989Z,11.37
2023-03-08T18:23:59.739Z,12.20
2023-03-08T18:27:05.643Z,11.97
2023-03-08T18:30:13.938Z,13.37
2023-03-08T18:33:18.083Z,16.90
2023-03-08T18:36:22.597Z,19.87
2023-03-08T18:39:27.426Z,20.67
2023-03-08T18:42:32.534Z,17.83
2023-03-08T18:45:39.091Z,13.73
2023-03-08T18:48:43.302Z,16.07
2023-03-08T18:51:47.379Z,15.10
2023-03-08T18:54:51.365Z,17.37
2023-03-08T18:57:55.204Z,22.70
2023-03-08T19:01:03.044Z,17.70
2023-03-08T19:04:08.279Z,17.20
2023-03-08T19:07:13.188Z,15.77
2023-03-08T19:10:17.080Z,16.77
2023-03-08T19:13:21.002Z,12.37
2023-03-08T19:16:27.833Z,12.23
2023-03-08T19:19:32.136Z,11.53
2023-03-08T19:22:35.902Z,11.13
2023-03-08T19:26:00.512Z,16.47
2023-03-08T19:29:07.059Z,13.90
2023-03-08T19:32:14.341Z,14.03
2023-03-08T19:35:18.331Z,12.17
2023-03-08T19:38:22.074Z,12.43
2023-03-08T19:41:26.369Z,12.60
2023-03-08T19:44:31.133Z,12.80
2023-03-08T19:47:37.133Z,12.33
2023-03-08T19:50:46.173Z,12.53
2023-03-08T19:53:50.029Z,11.13
2023-03-08T19:56:54.806Z,10.90
2023-03-08T20:00:00.754Z,11.10
2023-03-08T20:03:06.071Z,11.37
2023-03-08T20:06:11.062Z,11.27
2023-03-08T20:09:18.507Z,11.93
2023-03-08T20:12:22.273Z,11.67
2023-03-08T20:15:26.183Z,12.83
2023-03-08T20:18:31.543Z,11.77
2023-03-08T20:21:35.362Z,10.30
2023-03-08T20:24:39.139Z,10.30
2023-03-08T20:27:44.165Z,10.20
2023-03-08T20:30:48.178Z,10.00
2023-03-08T20:33:53.677Z,9.57
2023-03-08T20:36:57.650Z,9.93
2023-03-08T20:40:04.540Z,10.30
2023-03-08T20:43:11.229Z,9.53
2023-03-08T20:46:17.216Z,8.03
2023-03-08T20:49:22.539Z,8.13
2023-03-08T20:52:26.284Z,6.93
2023-03-08T20:55:30.114Z,9.93
2023-03-08T20:58:34.148Z,10.67
2023-03-08T21:01:38.027Z,10.67
2023-03-08T21:04:43.259Z,11.07
2023-03-08T21:07:47.077Z,13.03
2023-03-08T21:10:51.061Z,13.23
2023-03-08T21:13:55.704Z,13.53
2023-03-08T21:16:59.585Z,14.30
2023-03-08T21:20:05.453Z,14.83
2023-03-08T21:23:09.186Z,13.43
2023-03-08T21:26:14.208Z,13.73
2023-03-08T21:29:20.576Z,15.00
2023-03-08T21:32:26.331Z,14.10
2023-03-08T21:35:32.858Z,14.70
2023-03-08T21:38:36.813Z,14.20
2023-03-08T21:41:42.828Z,13.17
2023-03-08T21:44:46.671Z,13.40
2023-03-08T21:47:50.355Z,13.63
2023-03-08T21:50:55.641Z,15.37
2023-03-08T21:53:59.842Z,13.53
2023-03-08T21:57:03.691Z,13.90
2023-03-08T22:00:08.885Z,13.33
2023-03-08T22:03:15.704Z,13.43
2023-03-08T22:06:21.620Z,12.17
2023-03-08T22:09:27.231Z,12.50
2023-03-08T22:12:31.195Z,11.47
2023-03-08T22:15:35.037Z,12.20
2023-03-08T22:18:38.891Z,12.60
2023-03-08T22:21:44.179Z,11.67
2023-03-08T22:24:48.148Z,11.63
2023-03-08T22:27:51.961Z,12.40
2023-03-08T22:30:55.966Z,11.80
2023-03-08T22:34:01.584Z,12.87
2023-03-08T22:37:07.236Z,13.77
2023-03-08T22:40:13.370Z,13.90
2023-03-08T22:43:17.426Z,13.07
2023-03-08T22:46:24.071Z,11.57
2023-03-08T22:49:28.025Z,12.80
2023-03-08T22:52:33.466Z,12.77
2023-03-08T22:55:37.317Z,10.93
2023-03-08T22:58:41.326Z,12.00
2023-03-08T23:01:45.331Z,11.60
2023-03-08T23:04:49.319Z,11.57
2023-03-08T23:07:54.823Z,11.37
2023-03-08T23:10:59.060Z,10.27
2023-03-08T23:14:03.498Z,11.20
2023-03-08T23:17:07.559Z,11.70
2023-03-08T23:20:13.776Z,11.03
2023-03-08T23:23:19.261Z,10.83
2023-03-08T23:26:27.120Z,10.47
2023-03-08T23:29:31.552Z,10.17
2023-03-08T23:32:35.585Z,9.03
2023-03-08T23:35:39.617Z,8.83
2023-03-08T23:38:45.118Z,8.20
2023-03-08T23:41:49.087Z,9.43
2023-03-08T23:44:53.478Z,8.80
2023-03-08T23:47:57.264Z,9.80
2023-03-08T23:51:01.110Z,9.17
2023-03-08T23:54:06.448Z,9.13
2023-03-08T23:57:10.446Z,7.60
